Time;durP1;ratioP1;P1;durP2;ratioP2;P2;SDS_P1;SDS_P2;PMS_P1;PMS_P2;Temp;Humidity;BMP_temperature;BMP_pressure;BME280_temperature;BME280_humidity;BME280_pressure;Samples;Min_cycle;Max_cycle;Signal;HPM_P1;HPM_P2
2021/06/13 00:02:24;;;;;;;9.17;8.27;;;12.60;99.90;;;;;;4998411;28;20885;-50
2021/06/13 00:04:51;;;;;;;10.20;7.17;;;12.60;99.90;;;;;;4989496;28;20960;-50
2021/06/13 00:07:17;;;;;;;9.83;8.20;;;12.60;99.90;;;;;;4997625;28;20461;-53
2021/06/13 00:09:44;;;;;;;13.03;7.07;;;12.50;99.90;;;;;;4997885;28;20487;-52
2021/06/13 00:12:12;;;;;;;11.20;7.67;;;12.40;99.90;;;;;;4997529;28;20863;-52
2021/06/13 00:14:39;;;;;;;8.60;7.13;;;12.40;99.90;;;;;;4997478;28;20461;-54
2021/06/13 00:17:08;;;;;;;8.53;6.70;;;12.40;99.90;;;;;;4997747;28;20493;-47
2021/06/13 00:19:35;;;;;;;9.13;6.90;;;12.30;99.90;;;;;;4997825;28;20527;-49
2021/06/13 00:22:01;;;;;;;10.87;8.30;;;12.20;99.90;;;;;;4998192;28;20463;-51
2021/06/13 00:24:28;;;;;;;10.30;8.30;;;12.20;99.90;;;;;;4997776;28;20465;-49
2021/06/13 00:26:54;;;;;;;10.53;7.77;;;12.20;99.90;;;;;;4997767;28;20464;-45
2021/06/13 00:29:23;;;;;;;10.47;7.90;;;12.10;99.90;;;;;;4997750;28;20523;-44
2021/06/13 00:31:50;;;;;;;14.80;8.40;;;12.10;99.90;;;;;;4998245;28;20461;-44
2021/06/13 00:34:18;;;;;;;11.13;7.87;;;12.10;99.90;;;;;;4997648;28;20465;-46
2021/06/13 00:36:44;;;;;;;9.20;8.20;;;12.00;99.90;;;;;;4997390;28;20499;-44
2021/06/13 00:39:11;;;;;;;11.30;7.20;;;12.00;99.90;;;;;;4997582;28;20461;-47
2021/06/13 00:41:38;;;;;;;12.57;7.73;;;11.90;99.90;;;;;;4997966;28;20464;-44
2021/06/13 00:44:05;;;;;;;13.77;7.87;;;11.80;99.90;;;;;;4997594;28;20661;-48
2021/06/13 00:46:31;;;;;;;13.00;7.40;;;11.80;99.90;;;;;;4997967;28;20465;-47
2021/06/13 00:48:59;;;;;;;10.03;7.43;;;11.70;99.90;;;;;;4997846;28;20500;-46
2021/06/13 00:51:27;;;;;;;9.93;7.30;;;11.70;99.90;;;;;;4997834;28;20440;-44
2021/06/13 00:53:53;;;;;;;9.37;7.23;;;11.70;99.90;;;;;;4997759;28;20523;-45
2021/06/13 00:56:23;;;;;;;12.57;8.30;;;11.70;99.90;;;;;;4997952;28;20488;-54
2021/06/13 00:58:50;;;;;;;10.10;8.27;;;11.70;99.90;;;;;;4997540;28;20902;-49
2021/06/13 01:01:17;;;;;;;12.90;8.80;;;11.70;99.90;;;;;;4997812;28;20476;-53
2021/06/13 01:03:45;;;;;;;15.73;9.27;;;11.70;99.90;;;;;;4997388;28;20472;-53
2021/06/13 01:06:14;;;;;;;13.97;8.73;;;11.60;99.90;;;;;;4989210;28;20465;-48
2021/06/13 01:08:48;;;;;;;10.83;8.33;;;11.50;99.90;;;;;;4994960;28;20457;-49
2021/06/13 01:11:28;;;;;;;12.30;7.67;;;11.50;99.90;;;;;;4997316;28;20456;-46
2021/06/13 01:14:03;;;;;;;9.60;8.37;;;11.50;99.90;;;;;;4997031;28;20511;-52
2021/06/13 01:16:42;;;;;;;11.23;9.10;;;11.50;99.90;;;;;;4997261;28;20532;-51
2021/06/13 01:19:28;;;;;;;13.20;8.73;;;11.50;99.90;;;;;;4981277;28;20813;-50
2021/06/13 01:22:02;;;;;;;11.00;8.30;;;11.50;99.90;;;;;;5000499;28;20818;-50
2021/06/13 01:24:44;;;;;;;11.47;8.37;;;11.50;99.90;;;;;;5001210;28;20525;-53
2021/06/13 01:27:26;;;;;;;15.80;9.40;;;11.40;99.90;;;;;;5001207;28;20461;-54
2021/06/13 01:29:55;;;;;;;16.47;8.20;;;11.40;99.90;;;;;;5001462;28;20524;-53
2021/06/13 01:32:24;;;;;;;17.93;9.20;;;11.40;99.90;;;;;;5001543;28;20435;-52
2021/06/13 01:34:55;;;;;;;13.40;8.70;;;11.40;99.90;;;;;;5001261;28;20490;-53
2021/06/13 01:37:24;;;;;;;10.50;8.80;;;11.40;99.90;;;;;;5001248;28;20492;-50
2021/06/13 01:39:53;;;;;;;16.70;9.37;;;11.40;99.90;;;;;;5000982;28;20819;-52
2021/06/13 01:42:21;;;;;;;9.50;7.70;;;11.30;99.90;;;;;;5000909;28;20480;-53
2021/06/13 01:44:51;;;;;;;11.90;8.27;;;11.30;99.90;;;;;;5000644;28;20443;-46
2021/06/13 01:47:20;;;;;;;12.87;8.93;;;11.20;99.90;;;;;;5001296;28;20964;-54
2021/06/13 01:49:47;;;;;;;18.13;8.60;;;11.20;99.90;;;;;;5000830;28;20461;-54
2021/06/13 01:52:14;;;;;;;11.40;8.57;;;11.20;99.90;;;;;;5001051;28;20460;-51
2021/06/13 01:54:43;;;;;;;11.07;8.30;;;11.20;99.90;;;;;;5001358;28;20464;-46
2021/06/13 01:57:10;;;;;;;13.50;8.40;;;11.20;99.90;;;;;;5000646;28;20496;-44
2021/06/13 01:59:41;;;;;;;15.40;8.40;;;11.20;99.90;;;;;;5000478;28;20475;-47
2021/06/13 02:02:09;;;;;;;13.63;9.83;;;11.10;99.90;;;;;;5001393;28;20519;-44
2021/06/13 02:04:37;;;;;;;13.47;9.40;;;11.10;99.90;;;;;;4992135;28;20481;-49
2021/06/13 02:07:06;;;;;;;16.67;9.10;;;11.10;99.90;;;;;;5000228;28;20885;-48
2021/06/13 02:09:33;;;;;;;15.77;9.60;;;11.10;99.90;;;;;;5000025;28;20475;-47
2021/06/13 02:12:03;;;;;;;19.33;9.90;;;11.10;99.90;;;;;;5000972;28;20526;-48
2021/06/13 02:14:34;;;;;;;13.70;9.80;;;11.10;99.90;;;;;;5000162;28;20794;-45
2021/06/13 02:17:02;;;;;;;15.23;9.90;;;11.00;99.90;;;;;;5000663;28;20475;-43
2021/06/13 02:19:30;;;;;;;14.03;10.57;;;11.00;99.90;;;;;;5000739;28;20807;-44
2021/06/13 02:22:07;;;;;;;16.23;9.70;;;11.00;99.90;;;;;;5000544;28;20456;-44
2021/06/13 02:24:37;;;;;;;16.70;9.20;;;10.90;99.90;;;;;;5000600;28;20503;-44
2021/06/13 02:27:06;;;;;;;11.67;10.33;;;10.80;99.90;;;;;;5000524;28;20468;-44
2021/06/13 02:29:34;;;;;;;14.50;9.60;;;10.70;99.90;;;;;;5000347;28;20469;-45
2021/06/13 02:32:00;;;;;;;14.33;9.60;;;10.70;99.90;;;;;;5000013;28;20752;-43
2021/06/13 02:34:31;;;;;;;14.00;8.37;;;10.60;99.90;;;;;;5000374;28;20878;-52
2021/06/13 02:37:02;;;;;;;11.93;8.60;;;10.60;99.90;;;;;;5000357;28;20493;-53
2021/06/13 02:39:28;;;;;;;13.03;9.20;;;10.50;99.90;;;;;;4999533;28;20543;-44
2021/06/13 02:41:55;;;;;;;11.47;9.43;;;10.40;99.90;;;;;;5000167;28;20469;-48
2021/06/13 02:44:23;;;;;;;9.97;8.53;;;10.30;99.90;;;;;;5000549;28;20531;-48
2021/06/13 02:46:50;;;;;;;11.90;9.53;;;10.30;99.90;;;;;;5000254;28;20783;-52
2021/06/13 02:49:17;;;;;;;13.37;9.17;;;10.20;99.90;;;;;;4999807;28;20465;-48
2021/06/13 02:52:03;;;;;;;10.70;9.43;;;10.20;99.90;;;;;;5000007;28;20472;-44
2021/06/13 02:54:32;;;;;;;13.20;9.00;;;10.20;99.90;;;;;;5000341;28;20471;-45
2021/06/13 02:57:00;;;;;;;11.83;10.00;;;10.10;99.90;;;;;;4999652;28;20933;-45
2021/06/13 02:59:34;;;;;;;12.30;8.80;;;10.10;99.90;;;;;;4999440;28;20519;-44
2021/06/13 03:02:02;;;;;;;11.60;8.73;;;10.10;99.90;;;;;;5000200;28;20534;-43
2021/06/13 03:04:29;;;;;;;10.97;8.93;;;10.10;99.90;;;;;;4991409;28;20476;-45
2021/06/13 03:06:59;;;;;;;12.00;8.60;;;10.10;99.90;;;;;;4999040;28;20464;-43
2021/06/13 03:09:33;;;;;;;13.93;9.27;;;10.00;99.90;;;;;;4999071;28;20468;-44
2021/06/13 03:12:00;;;;;;;11.13;9.00;;;10.00;99.90;;;;;;4998875;28;20461;-45
2021/06/13 03:14:31;;;;;;;11.07;9.83;;;10.00;99.90;;;;;;4999021;28;20484;-48
2021/06/13 03:16:58;;;;;;;10.70;9.30;;;9.90;99.90;;;;;;4999561;28;20532;-43
2021/06/13 03:19:26;;;;;;;11.83;8.80;;;9.90;99.90;;;;;;4999275;28;20472;-45
2021/06/13 03:21:54;;;;;;;13.40;9.00;;;9.90;99.90;;;;;;4998900;28;20902;-47
2021/06/13 03:24:22;;;;;;;18.00;9.57;;;9.90;99.90;;;;;;4999408;28;20542;-48
2021/06/13 03:26:53;;;;;;;11.77;9.83;;;9.90;99.90;;;;;;4998817;28;20468;-52
2021/06/13 03:29:21;;;;;;;12.03;9.67;;;9.80;99.90;;;;;;4999076;28;20468;-49
2021/06/13 03:31:49;;;;;;;12.80;9.83;;;9.80;99.90;;;;;;4998913;28;20473;-49
2021/06/13 03:34:17;;;;;;;14.73;9.67;;;9.80;99.90;;;;;;4999465;28;20469;-50
2021/06/13 03:36:44;;;;;;;15.50;10.30;;;9.80;99.90;;;;;;4998920;28;20496;-51
2021/06/13 03:39:15;;;;;;;18.03;10.77;;;9.90;99.90;;;;;;4998954;28;20471;-53
2021/06/13 03:41:43;;;;;;;14.03;9.57;;;9.90;99.90;;;;;;4998916;28;20472;-53
2021/06/13 03:44:12;;;;;;;14.20;10.23;;;9.90;99.90;;;;;;4998170;28;20515;-54
2021/06/13 03:46:40;;;;;;;11.17;9.90;;;10.00;99.90;;;;;;4998611;28;20543;-51
2021/06/13 03:49:12;;;;;;;11.23;8.97;;;10.00;99.90;;;;;;4998987;28;20465;-54
2021/06/13 03:51:39;;;;;;;11.77;8.70;;;10.00;99.90;;;;;;4998593;28;20479;-54
2021/06/13 03:54:09;;;;;;;11.97;9.63;;;10.00;99.90;;;;;;4998864;28;20519;-48
2021/06/13 03:56:40;;;;;;;15.00;9.80;;;9.90;99.90;;;;;;4998958;28;20468;-45
2021/06/13 04:39:23;;;;;;;16.67;10.53;;;10.40;99.90;;;;;;2610729;23;20493;-47
2021/06/13 04:41:50;;;;;;;15.63;10.33;;;10.40;99.90;;;;;;4979221;28;20534;-52
2021/06/13 04:44:17;;;;;;;13.53;9.77;;;10.60;99.90;;;;;;4986892;28;20443;-53
2021/06/13 04:46:44;;;;;;;16.27;9.53;;;10.60;99.90;;;;;;4997943;28;20538;-48
2021/06/13 04:49:11;;;;;;;16.20;10.20;;;10.70;99.90;;;;;;4998200;28;20469;-54
2021/06/13 04:51:41;;;;;;;13.00;10.87;;;10.70;99.90;;;;;;4997657;28;20542;-54
2021/06/13 04:54:32;;;;;;;15.77;10.17;;;10.80;99.90;;;;;;4997552;28;20499;-54
2021/06/13 04:57:18;;;;;;;12.43;10.50;;;10.90;99.90;;;;;;4990329;28;20497;-54
2021/06/13 04:59:45;;;;;;;13.93;9.83;;;11.00;99.90;;;;;;4969052;28;20469;-50
2021/06/13 05:02:12;;;;;;;13.57;9.50;;;11.00;99.90;;;;;;4976227;28;20458;-48
2021/06/13 05:04:39;;;;;;;14.83;10.63;;;11.10;99.90;;;;;;4971361;28;20476;-54
2021/06/13 05:07:07;;;;;;;13.77;9.77;;;11.20;99.90;;;;;;4976651;28;20899;-55
2021/06/13 05:09:36;;;;;;;14.03;9.43;;;11.30;99.90;;;;;;4973998;28;20913;-54
2021/06/13 05:12:04;;;;;;;12.57;10.37;;;11.50;99.90;;;;;;4976215;28;20833;-54
2021/06/13 05:14:31;;;;;;;13.30;9.00;;;11.60;99.90;;;;;;4977214;28;20516;-51
2021/06/13 05:16:58;;;;;;;15.47;9.57;;;11.80;99.90;;;;;;4975257;28;20478;-54
2021/06/13 05:19:25;;;;;;;13.00;8.83;;;11.90;99.90;;;;;;4978349;28;20462;-46
2021/06/13 05:21:52;;;;;;;18.30;9.67;;;12.00;99.90;;;;;;4967197;28;20743;-48
2021/06/13 05:24:19;;;;;;;12.63;8.23;;;12.10;99.90;;;;;;4958581;29;20820;-48
2021/06/13 05:26:48;;;;;;;13.67;7.10;;;12.30;99.90;;;;;;4958595;29;20463;-45
2021/06/13 05:29:15;;;;;;;13.67;8.40;;;12.40;99.90;;;;;;4958868;29;20470;-45
2021/06/13 05:31:42;;;;;;;16.20;8.43;;;12.50;99.90;;;;;;4959564;29;20879;-50
2021/06/13 05:34:09;;;;;;;12.33;9.17;;;12.60;99.90;;;;;;4959007;29;20489;-53
2021/06/13 05:36:36;;;;;;;18.40;8.03;;;12.70;99.90;;;;;;4958667;29;20498;-55
2021/06/13 05:39:04;;;;;;;11.97;7.70;;;12.90;99.90;;;;;;4967780;28;20481;-51
2021/06/13 05:41:34;;;;;;;12.03;7.60;;;12.90;99.90;;;;;;4977387;28;20811;-55
2021/06/13 05:44:03;;;;;;;18.80;8.27;;;13.10;99.90;;;;;;4977789;28;20473;-52
2021/06/13 05:46:33;;;;;;;12.27;7.90;;;13.40;99.90;;;;;;4977942;28;20875;-54
2021/06/13 05:49:00;;;;;;;9.97;6.67;;;13.60;99.90;;;;;;4977917;28;20462;-48
2021/06/13 05:51:28;;;;;;;8.13;6.13;;;13.70;99.90;;;;;;4977706;28;20466;-47
2021/06/13 05:53:55;;;;;;;12.23;7.30;;;13.90;99.90;;;;;;4977825;28;20899;-45
2021/06/13 05:56:24;;;;;;;11.30;6.77;;;14.10;99.90;;;;;;4977260;28;20505;-49
2021/06/13 05:58:51;;;;;;;11.40;6.57;;;14.30;99.90;;;;;;4977849;28;20962;-47
2021/06/13 06:01:19;;;;;;;9.87;6.37;;;14.30;99.90;;;;;;4977888;28;20830;-48
2021/06/13 06:03:47;;;;;;;10.23;6.53;;;14.20;99.90;;;;;;4969843;28;20488;-52
2021/06/13 06:06:14;;;;;;;8.67;6.10;;;14.50;99.90;;;;;;4976711;28;20454;-51
2021/06/13 06:08:41;;;;;;;10.80;5.90;;;14.80;99.90;;;;;;4981036;28;20483;-53
2021/06/13 06:11:09;;;;;;;9.00;6.70;;;15.10;99.90;;;;;;4981413;28;20470;-52
2021/06/13 06:13:36;;;;;;;12.33;7.07;;;15.30;99.90;;;;;;4984950;28;20532;-48
2021/06/13 06:16:03;;;;;;;11.33;7.17;;;15.80;99.90;;;;;;4980493;28;20444;-44
2021/06/13 06:18:31;;;;;;;9.67;6.40;;;15.80;99.90;;;;;;4999580;28;20496;-44
2021/06/13 06:20:58;;;;;;;7.60;5.90;;;16.30;99.90;;;;;;4988618;28;20444;-49
2021/06/13 06:23:25;;;;;;;9.03;5.50;;;16.40;99.90;;;;;;4981295;28;20432;-44
2021/06/13 06:25:52;;;;;;;7.23;6.60;;;16.80;99.90;;;;;;4981112;28;20465;-47
2021/06/13 06:28:21;;;;;;;6.87;6.23;;;17.10;99.50;;;;;;4981073;28;20470;-44
2021/06/13 06:30:48;;;;;;;8.13;5.93;;;16.90;94.20;;;;;;4981158;28;20907;-52
2021/06/13 06:33:15;;;;;;;9.97;5.63;;;17.40;98.30;;;;;;4980851;28;20469;-44
2021/06/13 06:35:47;;;;;;;9.13;5.77;;;17.60;93.90;;;;;;4981895;28;20897;-46
2021/06/13 06:38:14;;;;;;;8.37;5.90;;;17.80;92.40;;;;;;4983375;28;20486;-47
2021/06/13 06:40:41;;;;;;;7.43;5.53;;;17.50;78.00;;;;;;4981102;28;20948;-44
2021/06/13 06:43:11;;;;;;;9.17;5.87;;;17.50;82.80;;;;;;4980938;28;20472;-44
2021/06/13 06:45:40;;;;;;;8.50;5.70;;;17.40;78.40;;;;;;4980989;28;20466;-47
2021/06/13 06:48:10;;;;;;;8.30;6.00;;;17.90;80.50;;;;;;4980913;28;20443;-47
2021/06/13 06:50:37;;;;;;;7.57;5.77;;;18.10;81.20;;;;;;4980638;28;20447;-45
2021/06/13 06:53:05;;;;;;;7.57;5.60;;;18.30;71.00;;;;;;4980534;28;20819;-44
2021/06/13 06:55:32;;;;;;;9.57;5.47;;;18.60;74.30;;;;;;4980877;28;20457;-48
2021/06/13 06:58:02;;;;;;;6.73;5.30;;;18.80;70.30;;;;;;4980206;28;20814;-51
2021/06/13 07:00:36;;;;;;;10.30;5.80;;;18.40;70.40;;;;;;4980069;28;20466;-50
2021/06/13 07:03:05;;;;;;;7.10;5.13;;;18.50;74.20;;;;;;4975099;28;20553;-50
2021/06/13 07:05:33;;;;;;;6.50;5.50;;;18.70;65.70;;;;;;4977530;28;20448;-51
2021/06/13 07:08:00;;;;;;;8.20;5.70;;;18.60;62.70;;;;;;4979826;28;20459;-45
2021/06/13 07:10:28;;;;;;;8.60;5.10;;;19.20;65.30;;;;;;4980626;28;20466;-49
2021/06/13 07:12:57;;;;;;;5.83;4.90;;;19.60;67.40;;;;;;4979666;28;20465;-50
2021/06/13 07:15:27;;;;;;;7.07;6.30;;;19.80;64.50;;;;;;4980464;28;20473;-47
2021/06/13 07:17:54;;;;;;;6.43;5.10;;;20.40;62.00;;;;;;4981559;28;20497;-45
2021/06/13 07:20:23;;;;;;;6.33;5.30;;;20.30;56.50;;;;;;4976977;28;20493;-48
2021/06/13 07:22:50;;;;;;;7.60;5.43;;;19.90;57.00;;;;;;4981688;28;20727;-51
2021/06/13 07:25:17;;;;;;;7.60;6.37;;;19.10;57.80;;;;;;4981572;28;20906;-52
2021/06/13 07:27:48;;;;;;;6.57;5.37;;;19.50;59.00;;;;;;4992451;28;20428;-48
2021/06/13 07:30:18;;;;;;;7.57;5.30;;;20.00;60.00;;;;;;5000613;28;20762;-47
2021/06/13 07:32:48;;;;;;;5.57;5.07;;;20.30;56.70;;;;;;4999608;28;20473;-44
2021/06/13 07:35:15;;;;;;;6.17;5.40;;;20.50;57.20;;;;;;4987287;28;20466;-47
2021/06/13 07:37:43;;;;;;;6.20;5.03;;;20.80;52.30;;;;;;4979993;28;20493;-44
2021/06/13 07:40:15;;;;;;;7.70;5.47;;;20.70;52.50;;;;;;4980106;28;20759;-44
2021/06/13 08:23:17;;;;;;;8.93;6.00;;;22.10;52.30;;;;;;4985563;28;20604;-51
2021/06/13 08:25:49;;;;;;;7.00;5.80;;;22.50;51.80;;;;;;4989463;28;20458;-55
2021/06/13 08:28:18;;;;;;;5.87;4.87;;;22.50;49.40;;;;;;4987105;28;20457;-52
2021/06/13 08:30:45;;;;;;;7.40;5.60;;;21.60;49.80;;;;;;4980604;28;20436;-54
2021/06/13 08:33:14;;;;;;;8.10;5.40;;;21.30;54.70;;;;;;4979825;28;20754;-54
2021/06/13 08:35:41;;;;;;;7.70;5.00;;;21.80;50.70;;;;;;4978224;28;20466;-51
2021/06/13 08:38:10;;;;;;;9.10;6.13;;;21.70;50.40;;;;;;4978424;28;20464;-49
2021/06/13 08:40:40;;;;;;;7.17;5.90;;;22.10;52.10;;;;;;4978996;28;20477;-51
2021/06/13 08:43:08;;;;;;;5.73;5.23;;;22.70;52.10;;;;;;4979526;28;20465;-54
2021/06/13 08:48:04;;;;;;;5.33;4.83;;;23.30;49.90;;;;;;4958020;29;20470;-56
2021/06/13 08:50:33;;;;;;;9.40;5.97;;;22.70;49.30;;;;;;4959056;29;20496;-50
2021/06/13 08:53:01;;;;;;;8.43;5.73;;;23.30;52.10;;;;;;4959097;29;20462;-50
2021/06/13 08:55:36;;;;;;;8.20;5.23;;;23.90;48.00;;;;;;4958323;28;20522;-50
2021/06/13 08:58:08;;;;;;;6.57;5.43;;;23.80;44.80;;;;;;4959139;29;20494;-54
2021/06/13 09:00:37;;;;;;;6.47;5.17;;;23.30;47.40;;;;;;4959336;29;20738;-47
2021/06/13 09:03:06;;;;;;;8.47;5.80;;;23.70;50.40;;;;;;4955658;28;21105;-54
2021/06/13 09:05:34;;;;;;;6.70;5.40;;;24.30;48.00;;;;;;4956479;28;20565;-47
2021/06/13 09:08:07;;;;;;;6.17;5.07;;;24.30;44.90;;;;;;4960234;29;20872;-48
2021/06/13 09:10:37;;;;;;;6.03;5.33;;;24.10;45.40;;;;;;4959002;29;20471;-47
2021/06/13 09:13:21;;;;;;;5.63;5.00;;;23.90;46.10;;;;;;4959725;29;20463;-49
2021/06/13 09:15:50;;;;;;;8.60;5.70;;;24.40;46.60;;;;;;4959923;29;20903;-53
2021/06/13 09:18:35;;;;;;;7.43;5.37;;;24.20;45.20;;;;;;4958776;29;20498;-50
2021/06/13 09:21:02;;;;;;;6.37;5.17;;;24.10;46.20;;;;;;4958896;28;20823;-50
2021/06/13 09:23:30;;;;;;;7.47;5.93;;;24.20;46.90;;;;;;4958956;28;20463;-48
2021/06/13 09:26:00;;;;;;;6.60;4.80;;;22.90;46.00;;;;;;4958929;28;20888;-48
2021/06/13 09:28:32;;;;;;;6.33;5.10;;;22.10;46.50;;;;;;4958748;29;20467;-53
2021/06/13 09:30:59;;;;;;;9.87;6.53;;;21.60;48.10;;;;;;4958452;29;20470;-47
2021/06/13 09:33:28;;;;;;;7.23;6.40;;;21.80;48.50;;;;;;4958732;29;20557;-54
2021/06/13 09:35:57;;;;;;;12.10;5.80;;;22.80;50.80;;;;;;4958625;29;20470;-51
2021/06/13 09:38:28;;;;;;;6.50;5.77;;;24.10;46.90;;;;;;4958438;28;20493;-55
2021/06/13 09:41:02;;;;;;;7.20;5.40;;;24.70;47.10;;;;;;4958295;28;20474;-47
2021/06/13 09:43:34;;;;;;;8.30;5.97;;;24.20;45.80;;;;;;4962329;29;20441;-54
2021/06/13 09:46:10;;;;;;;8.97;6.93;;;23.20;47.90;;;;;;4961712;29;20490;-54
2021/06/13 09:48:38;;;;;;;7.00;5.63;;;23.40;45.50;;;;;;4961974;29;20771;-56
2021/06/13 09:51:07;;;;;;;7.10;5.53;;;23.80;46.50;;;;;;4962417;29;20502;-53
2021/06/13 09:53:45;;;;;;;7.07;4.97;;;24.30;49.40;;;;;;4962482;29;20553;-49
2021/06/13 09:56:21;;;;;;;8.40;5.63;;;25.10;46.00;;;;;;4961609;29;20466;-53
2021/06/13 09:58:52;;;;;;;5.90;5.37;;;24.60;48.20;;;;;;4961601;29;20510;-55
2021/06/13 10:01:23;;;;;;;9.10;5.40;;;24.90;44.60;;;;;;4962088;29;20481;-55
2021/06/13 10:03:50;;;;;;;6.10;5.27;;;23.60;44.20;;;;;;4946724;28;20473;-50
2021/06/13 10:06:23;;;;;;;8.13;5.73;;;24.20;46.20;;;;;;4960501;29;20777;-50
2021/06/13 10:08:51;;;;;;;7.80;6.27;;;23.30;45.30;;;;;;4962696;29;20477;-51
2021/06/13 10:11:21;;;;;;;5.97;4.90;;;23.70;46.80;;;;;;4961685;28;20463;-50
2021/06/13 10:13:52;;;;;;;6.87;5.27;;;23.40;46.30;;;;;;4960486;28;20485;-55
2021/06/13 10:16:38;;;;;;;7.00;5.40;;;24.20;45.10;;;;;;4960336;28;20467;-47
2021/06/13 10:19:15;;;;;;;7.50;6.10;;;25.00;44.40;;;;;;4960159;29;20502;-52
2021/06/13 10:21:45;;;;;;;6.10;4.80;;;23.60;43.20;;;;;;4953806;29;20462;-53
2021/06/13 10:24:18;;;;;;;5.83;4.90;;;23.20;43.30;;;;;;4960848;28;20469;-53
2021/06/13 10:26:47;;;;;;;6.83;5.20;;;24.10;47.30;;;;;;4960711;28;20467;-49
2021/06/13 10:29:17;;;;;;;5.60;4.63;;;24.30;44.20;;;;;;4960634;28;20462;-53
2021/06/13 10:31:45;;;;;;;5.83;5.30;;;25.00;42.00;;;;;;4960694;29;20466;-47
2021/06/13 10:34:13;;;;;;;5.60;4.77;;;24.30;40.60;;;;;;4957003;29;20745;-53
2021/06/13 10:36:41;;;;;;;6.87;5.80;;;24.90;45.40;;;;;;4957569;29;20470;-48
2021/06/13 10:39:10;;;;;;;5.87;5.27;;;25.60;40.10;;;;;;4962021;29;20502;-52
2021/06/13 10:41:40;;;;;;;8.43;4.80;;;24.70;41.20;;;;;;4956230;29;20778;-51
2021/06/13 10:44:12;;;;;;;5.50;4.53;;;24.20;40.80;;;;;;4961294;29;20486;-50
2021/06/13 10:46:42;;;;;;;5.20;4.70;;;25.10;42.10;;;;;;4960761;29;20577;-49
2021/06/13 10:49:28;;;;;;;5.37;4.87;;;26.20;42.70;;;;;;4960588;29;20441;-51
2021/06/13 10:52:06;;;;;;;6.60;6.00;;;26.90;39.40;;;;;;4955405;28;20467;-49
2021/06/13 10:54:35;;;;;;;12.00;5.27;;;27.40;40.00;;;;;;4961056;28;20914;-50
2021/06/13 10:57:36;;;;;;;8.17;5.67;;;27.20;39.50;;;;;;4960183;29;20498;-47
2021/06/13 11:00:28;;;;;;;7.70;5.63;;;26.70;38.40;;;;;;4955569;29;20471;-50
2021/06/13 11:02:59;;;;;;;5.97;5.40;;;25.00;41.80;;;;;;4948956;28;20796;-51
2021/06/13 11:05:38;;;;;;;5.77;5.20;;;24.20;42.00;;;;;;4957744;28;20533;-52
2021/06/13 11:45:04;;;;;;;5.30;4.80;;;27.40;40.00;;;;;;5417786;23;20462;-57
2021/06/13 11:47:37;;;;;;;7.37;6.03;;;26.80;41.80;;;;;;4907915;29;20480;-55
2021/06/13 11:50:09;;;;;;;6.40;5.80;;;27.10;41.10;;;;;;4920388;29;20555;-57
2021/06/13 11:53:06;;;;;;;6.97;5.43;;;27.70;42.20;;;;;;4914089;29;20456;-57
2021/06/13 11:56:02;;;;;;;5.50;5.10;;;27.60;40.40;;;;;;4921037;29;20465;-57
2021/06/13 11:58:31;;;;;;;6.23;5.60;;;27.40;38.80;;;;;;4919335;29;20504;-57
2021/06/13 12:01:01;;;;;;;6.50;5.57;;;26.70;36.80;;;;;;4921207;29;20539;-57
2021/06/13 12:03:30;;;;;;;9.10;5.40;;;27.30;37.70;;;;;;4914604;29;20840;-55
2021/06/13 12:06:17;;;;;;;7.20;6.60;;;27.40;38.80;;;;;;4913630;29;20487;-57
2021/06/13 12:08:46;;;;;;;6.47;5.87;;;27.60;37.70;;;;;;4903441;29;20909;-57
2021/06/13 12:11:33;;;;;;;9.33;5.30;;;28.60;38.70;;;;;;4920715;29;20469;-57
2021/06/13 12:14:20;;;;;;;6.63;5.17;;;28.00;36.60;;;;;;4911337;29;20537;-58
2021/06/13 12:16:51;;;;;;;6.10;5.50;;;28.70;37.00;;;;;;4917028;29;20479;-57
2021/06/13 12:19:32;;;;;;;7.80;5.83;;;26.80;37.50;;;;;;4916067;29;21030;-57
2021/06/13 12:22:30;;;;;;;8.63;6.17;;;26.70;39.60;;;;;;4919773;29;20476;-57
2021/06/13 12:27:58;;;;;;;8.23;5.53;;;28.00;37.60;;;;;;4862371;29;20486;-57
2021/06/13 12:30:27;;;;;;;6.97;5.30;;;27.80;37.70;;;;;;4862418;29;20467;-57
2021/06/13 12:32:57;;;;;;;6.20;5.63;;;27.40;37.40;;;;;;4888578;29;20468;-53
2021/06/13 12:35:27;;;;;;;6.00;5.50;;;27.90;36.80;;;;;;4919377;29;20469;-57
2021/06/13 12:38:01;;;;;;;5.50;5.00;;;27.10;36.60;;;;;;4914401;29;20473;-57
2021/06/13 12:40:28;;;;;;;7.27;5.73;;;27.20;37.80;;;;;;4918860;29;20551;-57
2021/06/13 12:42:58;;;;;;;5.97;5.27;;;28.10;35.30;;;;;;4920357;29;20849;-56
2021/06/13 12:45:25;;;;;;;5.67;5.17;;;27.40;33.80;;;;;;4920631;29;20503;-58
2021/06/13 12:47:58;;;;;;;4.90;4.33;;;27.00;34.70;;;;;;4920388;29;20468;-57
2021/06/13 12:50:29;;;;;;;6.73;5.40;;;27.00;34.50;;;;;;4921078;29;20470;-58
2021/06/13 12:53:01;;;;;;;6.60;5.00;;;26.00;35.40;;;;;;4920538;29;20882;-58
2021/06/13 12:55:35;;;;;;;6.47;4.90;;;26.30;35.70;;;;;;4926465;29;20456;-58
2021/06/13 12:58:12;;;;;;;7.00;5.70;;;26.20;35.50;;;;;;4926323;29;20543;-57
2021/06/13 13:00:41;;;;;;;5.93;4.90;;;26.90;35.50;;;;;;4912730;29;20476;-58
2021/06/13 13:03:13;;;;;;;6.40;5.33;;;27.40;34.00;;;;;;4913766;29;20567;-57
2021/06/13 13:05:43;;;;;;;5.70;5.20;;;27.30;34.70;;;;;;4908742;29;20937;-58
2021/06/13 13:08:23;;;;;;;5.97;5.37;;;26.40;32.80;;;;;;4918558;29;20559;-57
2021/06/13 13:10:58;;;;;;;5.17;4.67;;;27.10;34.70;;;;;;4915398;29;20468;-58
2021/06/13 13:13:30;;;;;;;6.13;5.53;;;27.00;32.10;;;;;;4911507;29;20936;-57
2021/06/13 13:15:58;;;;;;;6.17;4.80;;;27.40;33.40;;;;;;4923964;29;20465;-57
2021/06/13 13:18:27;;;;;;;5.93;5.27;;;25.90;34.20;;;;;;4929238;29;20500;-57
2021/06/13 13:20:58;;;;;;;6.13;5.53;;;25.10;35.10;;;;;;4923225;29;20446;-57
2021/06/13 13:23:26;;;;;;;5.10;4.60;;;25.30;35.80;;;;;;4903899;29;20559;-56
2021/06/13 13:25:54;;;;;;;5.70;4.90;;;26.20;35.20;;;;;;4890722;29;20781;-57
2021/06/13 13:28:27;;;;;;;7.50;5.00;;;25.40;35.40;;;;;;4917877;29;20479;-56
2021/06/13 13:30:56;;;;;;;7.47;5.50;;;25.30;35.40;;;;;;4922119;29;20468;-58
2021/06/13 13:33:35;;;;;;;7.50;5.70;;;25.80;36.50;;;;;;4915563;29;20466;-58
2021/06/13 13:38:44;;;;;;;6.00;5.40;;;27.20;35.90;;;;;;4810777;23;20481;-58
2021/06/13 13:41:13;;;;;;;5.17;4.67;;;26.50;35.00;;;;;;4964258;28;20502;-58
2021/06/13 13:43:55;;;;;;;7.63;5.63;;;27.40;35.60;;;;;;4979771;28;20489;-58
2021/06/13 13:46:30;;;;;;;8.57;5.73;;;26.40;34.70;;;;;;4977774;28;20473;-58
2021/06/13 13:49:00;;;;;;;6.10;5.50;;;25.80;35.70;;;;;;4976748;28;20791;-58
2021/06/13 14:29:26;;;;;;;6.30;5.67;;;28.20;33.30;;;;;;2681996;23;21358;-57
2021/06/13 14:31:53;;;;;;;6.27;5.70;;;28.20;34.00;;;;;;4980157;28;20469;-56
2021/06/13 14:34:24;;;;;;;6.97;5.40;;;28.40;35.00;;;;;;4981297;28;20524;-56
2021/06/13 14:36:51;;;;;;;7.43;6.63;;;28.00;35.20;;;;;;4968837;28;20899;-56
2021/06/13 14:39:18;;;;;;;5.70;5.07;;;27.70;34.40;;;;;;4975804;28;20964;-57
2021/06/13 14:41:47;;;;;;;7.30;5.73;;;26.90;34.30;;;;;;4980246;28;20902;-57
2021/06/13 14:44:14;;;;;;;6.23;5.30;;;27.10;34.80;;;;;;4980077;28;20496;-57
2021/06/13 14:46:42;;;;;;;6.67;5.57;;;26.80;35.00;;;;;;4979968;28;20504;-56
2021/06/13 14:49:12;;;;;;;6.07;5.43;;;26.30;35.90;;;;;;4979451;28;20465;-56
2021/06/13 14:51:42;;;;;;;7.10;6.13;;;26.30;37.00;;;;;;4980054;28;20466;-56
2021/06/13 14:54:09;;;;;;;9.40;6.67;;;26.30;36.90;;;;;;4978927;28;20476;-55
2021/06/13 14:56:36;;;;;;;5.83;5.23;;;26.30;37.10;;;;;;4981107;28;20466;-57
2021/06/13 14:59:03;;;;;;;7.27;5.80;;;26.70;37.30;;;;;;4978260;28;20501;-55
2021/06/13 15:01:31;;;;;;;6.70;6.00;;;26.50;37.10;;;;;;4978509;28;20965;-57
2021/06/13 15:04:03;;;;;;;6.63;5.93;;;26.30;36.20;;;;;;4969865;28;20922;-54
2021/06/13 15:06:34;;;;;;;7.37;6.60;;;26.20;38.60;;;;;;4977050;28;20474;-53
2021/06/13 15:09:01;;;;;;;8.30;7.30;;;26.10;36.80;;;;;;4979438;28;20515;-50
2021/06/13 15:11:37;;;;;;;5.80;4.97;;;26.70;37.50;;;;;;4979122;28;20488;-50
2021/06/13 15:14:08;;;;;;;5.17;4.77;;;27.10;37.20;;;;;;4979356;28;20440;-56
2021/06/13 15:16:36;;;;;;;7.93;6.50;;;27.20;36.60;;;;;;4969467;28;20469;-55
2021/06/13 15:19:05;;;;;;;8.03;6.50;;;26.30;36.50;;;;;;4974985;28;20493;-54
2021/06/13 15:21:38;;;;;;;9.60;5.50;;;26.10;38.10;;;;;;4976550;28;20765;-57
2021/06/13 15:24:07;;;;;;;8.57;6.30;;;26.50;36.50;;;;;;4975317;28;20465;-56
2021/06/13 15:26:35;;;;;;;8.20;5.63;;;26.40;35.50;;;;;;4977483;28;20469;-53
2021/06/13 15:29:04;;;;;;;6.60;5.80;;;26.20;35.80;;;;;;4975275;28;20520;-55
2021/06/13 15:31:31;;;;;;;8.50;6.30;;;25.50;37.10;;;;;;4958360;29;20501;-50
2021/06/13 15:33:59;;;;;;;6.20;5.20;;;25.20;37.30;;;;;;4958845;29;20462;-50
2021/06/13 15:36:29;;;;;;;7.57;6.77;;;25.60;38.90;;;;;;4950627;28;20911;-47
2021/06/13 15:38:59;;;;;;;7.03;6.20;;;25.70;38.30;;;;;;4956904;28;20501;-47
2021/06/13 15:41:26;;;;;;;7.10;6.17;;;25.70;38.10;;;;;;4955977;29;20475;-53
2021/06/13 15:43:53;;;;;;;6.80;6.13;;;25.50;38.30;;;;;;4957450;29;20478;-56